sensor_id;sensor_type;location;lat;lon;timestamp;P1;durP1;ratioP1;P2;durP2;ratioP2
4577;SDS011;2301;47.354;8.528;2024-02-26T00:02:10;0.08;;;0.08;;
4577;SDS011;2301;47.354;8.528;2024-02-26T00:04:37;0.00;;;0.00;;
4577;SDS011;2301;47.354;8.528;2024-02-26T00:07:04;0.00;;;0.00;;
4577;SDS011;2301;47.354;8.528;2024-02-26T00:09:32;0.10;;;0.10;;
4577;SDS011;2301;47.354;8.528;2024-02-26T00:12:01;0.00;;;0.00;;
4577;SDS011;2301;47.354;8.528;2024-02-26T00:14:28;0.00;;;0.00;;
4577;SDS011;2301;47.354;8.528;2024-02-26T00:16:57;0.10;;;0.10;;
4577;SDS011;2301;47.354;8.528;2024-02-26T00:19:24;0.10;;;0.10;;
4577;SDS011;2301;47.354;8.528;2024-02-26T00:21:50;0.10;;;0.10;;
4577;SDS011;2301;47.354;8.528;2024-02-26T00:24:18;0.00;;;0.00;;
4577;SDS011;2301;47.354;8.528;2024-02-26T00:26:45;0.10;;;0.10;;
4577;SDS011;2301;47.354;8.528;2024-02-26T00:29:17;0.00;;;0.00;;
4577;SDS011;2301;47.354;8.528;2024-02-26T00:31:44;0.00;;;0.00;;
4577;SDS011;2301;47.354;8.528;2024-02-26T00:34:13;0.10;;;0.10;;
4577;SDS011;2301;47.354;8.528;2024-02-26T00:36:40;0.10;;;0.10;;
4577;SDS011;2301;47.354;8.528;2024-02-26T00:39:06;0.00;;;0.00;;
4577;SDS011;2301;47.354;8.528;2024-02-26T00:41:37;0.00;;;0.00;;
4577;SDS011;2301;47.354;8.528;2024-02-26T00:44:04;0.00;;;0.00;;
4577;SDS011;2301;47.354;8.528;2024-02-26T00:46:31;0.10;;;0.10;;
4577;SDS011;2301;47.354;8.528;2024-02-26T00:48:58;0.00;;;0.00;;
4577;SDS011;2301;47.354;8.528;2024-02-26T00:51:26;0.00;;;0.00;;
4577;SDS011;2301;47.354;8.528;2024-02-26T00:53:53;0.10;;;0.10;;
4577;SDS011;2301;47.354;8.528;2024-02-26T00:56:21;0.00;;;0.00;;
4577;SDS011;2301;47.354;8.528;2024-02-26T00:58:48;0.10;;;0.10;;
4577;SDS011;2301;47.354;8.528;2024-02-26T01:01:15;0.10;;;0.10;;
4577;SDS011;2301;47.354;8.528;2024-02-26T01:03:42;0.00;;;0.00;;
4577;SDS011;2301;47.354;8.528;2024-02-26T01:06:09;0.10;;;0.10;;
4577;SDS011;2301;47.354;8.528;2024-02-26T01:08:37;0.10;;;0.10;;
4577;SDS011;2301;47.354;8.528;2024-02-26T01:11:04;0.10;;;0.10;;
4577;SDS011;2301;47.354;8.528;2024-02-26T01:13:31;0.10;;;0.10;;
4577;SDS011;2301;47.354;8.528;2024-02-26T01:15:58;0.00;;;0.00;;
4577;SDS011;2301;47.354;8.528;2024-02-26T01:18:25;0.10;;;0.10;;
4577;SDS011;2301;47.354;8.528;2024-02-26T01:20:52;0.10;;;0.10;;
4577;SDS011;2301;47.354;8.528;2024-02-26T01:23:20;0.10;;;0.10;;
4577;SDS011;2301;47.354;8.528;2024-02-26T01:25:48;0.10;;;0.10;;
4577;SDS011;2301;47.354;8.528;2024-02-26T01:28:15;0.00;;;0.00;;
4577;SDS011;2301;47.354;8.528;2024-02-26T01:30:42;0.00;;;0.00;;
4577;SDS011;2301;47.354;8.528;2024-02-26T01:33:09;0.00;;;0.00;;
4577;SDS011;2301;47.354;8.528;2024-02-26T01:35:36;0.00;;;0.00;;
4577;SDS011;2301;47.354;8.528;2024-02-26T01:38:03;0.00;;;0.00;;
4577;SDS011;2301;47.354;8.528;2024-02-26T01:40:31;0.00;;;0.00;;
4577;SDS011;2301;47.354;8.528;2024-02-26T01:43:00;0.00;;;0.00;;
4577;SDS011;2301;47.354;8.528;2024-02-26T01:45:27;0.10;;;0.10;;
4577;SDS011;2301;47.354;8.528;2024-02-26T01:47:54;0.10;;;0.10;;
4577;SDS011;2301;47.354;8.528;2024-02-26T01:50:22;0.10;;;0.10;;
4577;SDS011;2301;47.354;8.528;2024-02-26T01:52:51;0.05;;;0.05;;
4577;SDS011;2301;47.354;8.528;2024-02-26T01:55:22;0.00;;;0.00;;
4577;SDS011;2301;47.354;8.528;2024-02-26T01:57:54;0.10;;;0.10;;
4577;SDS011;2301;47.354;8.528;2024-02-26T02:00:23;0.00;;;0.00;;
4577;SDS011;2301;47.354;8.528;2024-02-26T02:02:50;0.10;;;0.10;;
4577;SDS011;2301;47.354;8.528;2024-02-26T02:05:19;0.00;;;0.00;;
4577;SDS011;2301;47.354;8.528;2024-02-26T02:07:47;0.10;;;0.10;;
4577;SDS011;2301;47.354;8.528;2024-02-26T02:10:15;0.10;;;0.10;;
4577;SDS011;2301;47.354;8.528;2024-02-26T02:12:43;0.00;;;0.00;;
4577;SDS011;2301;47.354;8.528;2024-02-26T02:15:10;0.00;;;0.00;;
4577;SDS011;2301;47.354;8.528;2024-02-26T02:17:38;0.10;;;0.10;;
4577;SDS011;2301;47.354;8.528;2024-02-26T02:20:07;0.10;;;0.10;;
4577;SDS011;2301;47.354;8.528;2024-02-26T02:22:36;0.10;;;0.10;;
4577;SDS011;2301;47.354;8.528;2024-02-26T02:25:04;0.00;;;0.00;;
4577;SDS011;2301;47.354;8.528;2024-02-26T02:27:31;0.00;;;0.00;;
4577;SDS011;2301;47.354;8.528;2024-02-26T02:29:58;0.00;;;0.00;;
4577;SDS011;2301;47.354;8.528;2024-02-26T02:32:26;0.10;;;0.10;;
4577;SDS011;2301;47.354;8.528;2024-02-26T02:34:54;0.00;;;0.00;;
4577;SDS011;2301;47.354;8.528;2024-02-26T02:37:21;0.10;;;0.10;;
4577;SDS011;2301;47.354;8.528;2024-02-26T02:39:49;0.10;;;0.10;;
4577;SDS011;2301;47.354;8.528;2024-02-26T02:42:18;0.00;;;0.00;;
4577;SDS011;2301;47.354;8.528;2024-02-26T02:44:45;0.00;;;0.00;;
4577;SDS011;2301;47.354;8.528;2024-02-26T02:47:12;0.08;;;0.08;;
4577;SDS011;2301;47.354;8.528;2024-02-26T02:49:39;0.10;;;0.10;;
4577;SDS011;2301;47.354;8.528;2024-02-26T02:52:06;0.00;;;0.00;;
4577;SDS011;2301;47.354;8.528;2024-02-26T02:54:33;0.00;;;0.00;;
4577;SDS011;2301;47.354;8.528;2024-02-26T02:57:09;0.10;;;0.10;;
4577;SDS011;2301;47.354;8.528;2024-02-26T02:59:39;0.10;;;0.10;;
4577;SDS011;2301;47.354;8.528;2024-02-26T03:02:06;0.20;;;0.20;;
4577;SDS011;2301;47.354;8.528;2024-02-26T03:04:33;0.00;;;0.00;;
4577;SDS011;2301;47.354;8.528;2024-02-26T03:07:00;0.20;;;0.20;;
4577;SDS011;2301;47.354;8.528;2024-02-26T03:09:27;0.10;;;0.10;;
4577;SDS011;2301;47.354;8.528;2024-02-26T03:11:54;0.00;;;0.00;;
4577;SDS011;2301;47.354;8.528;2024-02-26T03:14:22;0.10;;;0.10;;
4577;SDS011;2301;47.354;8.528;2024-02-26T03:16:50;0.10;;;0.10;;
4577;SDS011;2301;47.354;8.528;2024-02-26T03:19:20;0.20;;;0.20;;
4577;SDS011;2301;47.354;8.528;2024-02-26T03:21:47;0.20;;;0.20;;
4577;SDS011;2301;47.354;8.528;2024-02-26T03:24:15;0.00;;;0.00;;
4577;SDS011;2301;47.354;8.528;2024-02-26T03:26:52;0.10;;;0.10;;
4577;SDS011;2301;47.354;8.528;2024-02-26T03:29:23;0.00;;;0.00;;
4577;SDS011;2301;47.354;8.528;2024-02-26T03:31:53;0.10;;;0.10;;
4577;SDS011;2301;47.354;8.528;2024-02-26T03:34:21;0.30;;;0.30;;
4577;SDS011;2301;47.354;8.528;2024-02-26T03:36:48;0.10;;;0.10;;
4577;SDS011;2301;47.354;8.528;2024-02-26T03:39:15;0.00;;;0.00;;
4577;SDS011;2301;47.354;8.528;2024-02-26T03:41:44;0.00;;;0.00;;
4577;SDS011;2301;47.354;8.528;2024-02-26T03:44:11;0.10;;;0.10;;
4577;SDS011;2301;47.354;8.528;2024-02-26T03:46:39;0.10;;;0.10;;
4577;SDS011;2301;47.354;8.528;2024-02-26T03:49:07;0.10;;;0.10;;
4577;SDS011;2301;47.354;8.528;2024-02-26T03:51:35;0.10;;;0.10;;
4577;SDS011;2301;47.354;8.528;2024-02-26T03:54:04;0.10;;;0.10;;
4577;SDS011;2301;47.354;8.528;2024-02-26T03:56:33;0.20;;;0.20;;
4577;SDS011;2301;47.354;8.528;2024-02-26T03:59:00;0.20;;;0.20;;
4577;SDS011;2301;47.354;8.528;2024-02-26T04:01:27;0.10;;;0.10;;
4577;SDS011;2301;47.354;8.528;2024-02-26T04:03:56;0.20;;;0.20;;
4577;SDS011;2301;47.354;8.528;2024-02-26T04:06:23;0.00;;;0.00;;
4577;SDS011;2301;47.354;8.528;2024-02-26T04:08:49;0.00;;;0.00;;
4577;SDS011;2301;47.354;8.528;2024-02-26T04:11:16;0.10;;;0.10;;
4577;SDS011;2301;47.354;8.528;2024-02-26T04:13:44;0.10;;;0.10;;
4577;SDS011;2301;47.354;8.528;2024-02-26T04:16:14;0.20;;;0.20;;
4577;SDS011;2301;47.354;8.528;2024-02-26T04:18:41;0.00;;;0.00;;
4577;SDS011;2301;47.354;8.528;2024-02-26T04:21:10;0.00;;;0.00;;
4577;SDS011;2301;47.354;8.528;2024-02-26T04:23:36;0.20;;;0.20;;
4577;SDS011;2301;47.354;8.528;2024-02-26T04:26:04;0.20;;;0.20;;
4577;SDS011;2301;47.354;8.528;2024-02-26T04:28:31;0.20;;;0.20;;
4577;SDS011;2301;47.354;8.528;2024-02-26T04:30:58;0.10;;;0.10;;
4577;SDS011;2301;47.354;8.528;2024-02-26T04:33:25;0.20;;;0.20;;
4577;SDS011;2301;47.354;8.528;2024-02-26T04:35:52;0.10;;;0.10;;
4577;SDS011;2301;47.354;8.528;2024-02-26T04:38:20;0.20;;;0.20;;
4577;SDS011;2301;47.354;8.528;2024-02-26T04:40:47;0.00;;;0.00;;
4577;SDS011;2301;47.354;8.528;2024-02-26T04:43:14;0.00;;;0.00;;
4577;SDS011;2301;47.354;8.528;2024-02-26T04:45:43;0.20;;;0.20;;
4577;SDS011;2301;47.354;8.528;2024-02-26T04:48:10;0.20;;;0.20;;
4577;SDS011;2301;47.354;8.528;2024-02-26T04:50:37;0.10;;;0.10;;
4577;SDS011;2301;47.354;8.528;2024-02-26T04:53:04;0.10;;;0.10;;
4577;SDS011;2301;47.354;8.528;2024-02-26T04:55:32;0.10;;;0.10;;
4577;SDS011;2301;47.354;8.528;2024-02-26T04:57:59;0.20;;;0.20;;
4577;SDS011;2301;47.354;8.528;2024-02-26T05:00:26;0.20;;;0.20;;
4577;SDS011;2301;47.354;8.528;2024-02-26T05:02:53;0.00;;;0.00;;
4577;SDS011;2301;47.354;8.528;2024-02-26T05:05:20;0.05;;;0.05;;
4577;SDS011;2301;47.354;8.528;2024-02-26T05:07:47;0.10;;;0.10;;
4577;SDS011;2301;47.354;8.528;2024-02-26T05:10:14;0.00;;;0.00;;
4577;SDS011;2301;47.354;8.528;2024-02-26T05:12:42;0.20;;;0.20;;
4577;SDS011;2301;47.354;8.528;2024-02-26T05:15:09;0.10;;;0.10;;
4577;SDS011;2301;47.354;8.528;2024-02-26T05:17:36;0.10;;;0.10;;
4577;SDS011;2301;47.354;8.528;2024-02-26T05:20:03;0.10;;;0.10;;
4577;SDS011;2301;47.354;8.528;2024-02-26T05:22:33;0.00;;;0.00;;
4577;SDS011;2301;47.354;8.528;2024-02-26T05:24:59;0.00;;;0.00;;
4577;SDS011;2301;47.354;8.528;2024-02-26T05:27:27;0.10;;;0.10;;
4577;SDS011;2301;47.354;8.528;2024-02-26T05:29:55;0.30;;;0.30;;
4577;SDS011;2301;47.354;8.528;2024-02-26T05:32:22;0.00;;;0.00;;
4577;SDS011;2301;47.354;8.528;2024-02-26T05:34:49;0.10;;;0.10;;
4577;SDS011;2301;47.354;8.528;2024-02-26T05:37:15;0.20;;;0.20;;
4577;SDS011;2301;47.354;8.528;2024-02-26T05:39:42;0.00;;;0.00;;
4577;SDS011;2301;47.354;8.528;2024-02-26T05:42:09;0.00;;;0.00;;
4577;SDS011;2301;47.354;8.528;2024-02-26T05:44:36;0.10;;;0.10;;
4577;SDS011;2301;47.354;8.528;2024-02-26T05:47:05;0.00;;;0.00;;
4577;SDS011;2301;47.354;8.528;2024-02-26T05:49:32;0.10;;;0.10;;
4577;SDS011;2301;47.354;8.528;2024-02-26T05:52:00;0.10;;;0.10;;
4577;SDS011;2301;47.354;8.528;2024-02-26T05:54:29;0.00;;;0.00;;
4577;SDS011;2301;47.354;8.528;2024-02-26T05:56:59;0.00;;;0.00;;
4577;SDS011;2301;47.354;8.528;2024-02-26T05:59:29;0.10;;;0.10;;
4577;SDS011;2301;47.354;8.528;2024-02-26T06:02:00;0.20;;;0.20;;
4577;SDS011;2301;47.354;8.528;2024-02-26T06:04:29;0.10;;;0.10;;
4577;SDS011;2301;47.354;8.528;2024-02-26T06:06:56;0.00;;;0.00;;
4577;SDS011;2301;47.354;8.528;2024-02-26T06:09:23;0.10;;;0.10;;
4577;SDS011;2301;47.354;8.528;2024-02-26T06:11:50;0.00;;;0.00;;
4577;SDS011;2301;47.354;8.528;2024-02-26T06:14:17;0.10;;;0.10;;
4577;SDS011;2301;47.354;8.528;2024-02-26T06:16:45;0.30;;;0.30;;
4577;SDS011;2301;47.354;8.528;2024-02-26T06:19:13;0.10;;;0.10;;
4577;SDS011;2301;47.354;8.528;2024-02-26T06:21:41;0.20;;;0.20;;
4577;SDS011;2301;47.354;8.528;2024-02-26T06:24:08;0.10;;;0.10;;
4577;SDS011;2301;47.354;8.528;2024-02-26T06:26:35;0.10;;;0.10;;
4577;SDS011;2301;47.354;8.528;2024-02-26T06:29:02;0.10;;;0.10;;
4577;SDS011;2301;47.354;8.528;2024-02-26T06:31:29;0.10;;;0.10;;
4577;SDS011;2301;47.354;8.528;2024-02-26T06:33:56;0.10;;;0.10;;
4577;SDS011;2301;47.354;8.528;2024-02-26T06:39:00;0.80;;;0.80;;
4577;SDS011;2301;47.354;8.528;2024-02-26T06:41:27;0.70;;;0.70;;
4577;SDS011;2301;47.354;8.528;2024-02-26T06:43:55;0.80;;;0.80;;
4577;SDS011;2301;47.354;8.528;2024-02-26T06:46:22;0.70;;;0.70;;
4577;SDS011;2301;47.354;8.528;2024-02-26T06:48:51;0.80;;;0.80;;
4577;SDS011;2301;47.354;8.528;2024-02-26T06:51:18;0.70;;;0.70;;
4577;SDS011;2301;47.354;8.528;2024-02-26T06:54:03;0.80;;;0.80;;
4577;SDS011;2301;47.354;8.528;2024-02-26T06:56:30;0.80;;;0.80;;
4577;SDS011;2301;47.354;8.528;2024-02-26T06:58:58;0.80;;;0.80;;
4577;SDS011;2301;47.354;8.528;2024-02-26T07:01:28;0.80;;;0.80;;
4577;SDS011;2301;47.354;8.528;2024-02-26T07:03:56;0.80;;;0.80;;
4577;SDS011;2301;47.354;8.528;2024-02-26T07:06:23;0.77;;;0.77;;
4577;SDS011;2301;47.354;8.528;2024-02-26T07:08:50;0.70;;;0.70;;
4577;SDS011;2301;47.354;8.528;2024-02-26T07:11:19;0.90;;;0.90;;
4577;SDS011;2301;47.354;8.528;2024-02-26T07:13:46;0.85;;;0.85;;
4577;SDS011;2301;47.354;8.528;2024-02-26T07:16:17;0.80;;;0.80;;
4577;SDS011;2301;47.354;8.528;2024-02-26T07:18:44;0.90;;;0.90;;
4577;SDS011;2301;47.354;8.528;2024-02-26T07:21:11;1.02;;;1.02;;
4577;SDS011;2301;47.354;8.528;2024-02-26T07:23:38;1.20;;;1.20;;
4577;SDS011;2301;47.354;8.528;2024-02-26T07:26:06;1.20;;;1.20;;
4577;SDS011;2301;47.354;8.528;2024-02-26T07:28:35;1.40;;;1.40;;
4577;SDS011;2301;47.354;8.528;2024-02-26T07:31:02;1.40;;;1.40;;
4577;SDS011;2301;47.354;8.528;2024-02-26T07:33:30;1.25;;;1.25;;
4577;SDS011;2301;47.354;8.528;2024-02-26T07:35:57;1.40;;;1.40;;
4577;SDS011;2301;47.354;8.528;2024-02-26T07:38:24;1.20;;;1.20;;
4577;SDS011;2301;47.354;8.528;2024-02-26T07:46:50;0.00;;;0.00;;
4577;SDS011;2301;47.354;8.528;2024-02-26T07:49:17;0.10;;;0.10;;
4577;SDS011;2301;47.354;8.528;2024-02-26T07:51:44;0.00;;;0.00;;
4577;SDS011;2301;47.354;8.528;2024-02-26T07:54:11;0.03;;;0.03;;
4577;SDS011;2301;47.354;8.528;2024-02-26T07:56:38;0.10;;;0.10;;
4577;SDS011;2301;47.354;8.528;2024-02-26T07:59:05;0.00;;;0.00;;
4577;SDS011;2301;47.354;8.528;2024-02-26T08:01:32;0.00;;;0.00;;
4577;SDS011;2301;47.354;8.528;2024-02-26T08:04:01;0.10;;;0.10;;
4577;SDS011;2301;47.354;8.528;2024-02-26T08:06:27;0.10;;;0.10;;
4577;SDS011;2301;47.354;8.528;2024-02-26T08:08:54;0.00;;;0.00;;
4577;SDS011;2301;47.354;8.528;2024-02-26T08:11:21;0.00;;;0.00;;
4577;SDS011;2301;47.354;8.528;2024-02-26T08:13:48;0.00;;;0.00;;
4577;SDS011;2301;47.354;8.528;2024-02-26T08:16:15;0.10;;;0.10;;
4577;SDS011;2301;47.354;8.528;2024-02-26T08:18:42;0.10;;;0.10;;
4577;SDS011;2301;47.354;8.528;2024-02-26T08:21:11;0.00;;;0.00;;
4577;SDS011;2301;47.354;8.528;2024-02-26T08:23:43;0.00;;;0.00;;
4577;SDS011;2301;47.354;8.528;2024-02-26T08:26:11;0.00;;;0.00;;
4577;SDS011;2301;47.354;8.528;2024-02-26T08:28:38;0.10;;;0.10;;
4577;SDS011;2301;47.354;8.528;2024-02-26T08:31:05;0.00;;;0.00;;
4577;SDS011;2301;47.354;8.528;2024-02-26T08:33:35;0.10;;;0.10;;
4577;SDS011;2301;47.354;8.528;2024-02-26T08:36:05;0.00;;;0.00;;
4577;SDS011;2301;47.354;8.528;2024-02-26T08:38:37;0.00;;;0.00;;
4577;SDS011;2301;47.354;8.528;2024-02-26T08:41:06;0.10;;;0.10;;
4577;SDS011;2301;47.354;8.528;2024-02-26T08:43:35;0.10;;;0.10;;
4577;SDS011;2301;47.354;8.528;2024-02-26T08:46:02;0.10;;;0.10;;
4577;SDS011;2301;47.354;8.528;2024-02-26T08:48:29;0.10;;;0.10;;
4577;SDS011;2301;47.354;8.528;2024-02-26T08:50:56;0.00;;;0.00;;
4577;SDS011;2301;47.354;8.528;2024-02-26T08:53:23;0.10;;;0.10;;
4577;SDS011;2301;47.354;8.528;2024-02-26T08:55:53;0.00;;;0.00;;
4577;SDS011;2301;47.354;8.528;2024-02-26T08:58:20;0.03;;;0.03;;
4577;SDS011;2301;47.354;8.528;2024-02-26T09:00:47;0.10;;;0.10;;
4577;SDS011;2301;47.354;8.528;2024-02-26T09:03:14;0.10;;;0.10;;
4577;SDS011;2301;47.354;8.528;2024-02-26T09:05:41;0.00;;;0.00;;
4577;SDS011;2301;47.354;8.528;2024-02-26T09:08:07;0.00;;;0.00;;
4577;SDS011;2301;47.354;8.528;2024-02-26T09:10:34;0.00;;;0.00;;
4577;SDS011;2301;47.354;8.528;2024-02-26T09:13:03;0.00;;;0.00;;
4577;SDS011;2301;47.354;8.528;2024-02-26T09:15:30;0.10;;;0.10;;
4577;SDS011;2301;47.354;8.528;2024-02-26T09:17:57;0.10;;;0.10;;
4577;SDS011;2301;47.354;8.528;2024-02-26T09:20:24;0.10;;;0.10;;
4577;SDS011;2301;47.354;8.528;2024-02-26T09:22:51;0.10;;;0.10;;
4577;SDS011;2301;47.354;8.528;2024-02-26T09:25:18;0.00;;;0.00;;
4577;SDS011;2301;47.354;8.528;2024-02-26T09:27:46;0.10;;;0.10;;
4577;SDS011;2301;47.354;8.528;2024-02-26T09:30:14;0.00;;;0.00;;
4577;SDS011;2301;47.354;8.528;2024-02-26T09:32:45;0.10;;;0.10;;
4577;SDS011;2301;47.354;8.528;2024-02-26T09:35:13;0.10;;;0.10;;
4577;SDS011;2301;47.354;8.528;2024-02-26T09:37:40;0.10;;;0.10;;
4577;SDS011;2301;47.354;8.528;2024-02-26T09:40:09;0.10;;;0.10;;
4577;SDS011;2301;47.354;8.528;2024-02-26T09:42:37;0.10;;;0.10;;
4577;SDS011;2301;47.354;8.528;2024-02-26T09:45:10;0.10;;;0.10;;
4577;SDS011;2301;47.354;8.528;2024-02-26T09:47:44;0.10;;;0.10;;
4577;SDS011;2301;47.354;8.528;2024-02-26T09:50:13;0.00;;;0.00;;
4577;SDS011;2301;47.354;8.528;2024-02-26T09:52:43;0.10;;;0.10;;
4577;SDS011;2301;47.354;8.528;2024-02-26T09:55:10;0.00;;;0.00;;
4577;SDS011;2301;47.354;8.528;2024-02-26T09:57:37;0.10;;;0.10;;
4577;SDS011;2301;47.354;8.528;2024-02-26T10:00:04;0.10;;;0.10;;
4577;SDS011;2301;47.354;8.528;2024-02-26T10:02:36;0.10;;;0.10;;
4577;SDS011;2301;47.354;8.528;2024-02-26T10:05:07;0.10;;;0.10;;
4577;SDS011;2301;47.354;8.528;2024-02-26T10:07:38;0.00;;;0.00;;
4577;SDS011;2301;47.354;8.528;2024-02-26T10:10:06;0.10;;;0.10;;
4577;SDS011;2301;47.354;8.528;2024-02-26T10:12:35;0.00;;;0.00;;
4577;SDS011;2301;47.354;8.528;2024-02-26T10:15:02;0.00;;;0.00;;
4577;SDS011;2301;47.354;8.528;2024-02-26T10:17:29;0.10;;;0.10;;
4577;SDS011;2301;47.354;8.528;2024-02-26T10:20:00;0.00;;;0.00;;
4577;SDS011;2301;47.354;8.528;2024-02-26T10:22:39;0.00;;;0.00;;
4577;SDS011;2301;47.354;8.528;2024-02-26T10:25:07;0.00;;;0.00;;
4577;SDS011;2301;47.354;8.528;2024-02-26T10:27:34;0.00;;;0.00;;
4577;SDS011;2301;47.354;8.528;2024-02-26T10:30:02;0.00;;;0.00;;
4577;SDS011;2301;47.354;8.528;2024-02-26T10:32:30;0.10;;;0.10;;
4577;SDS011;2301;47.354;8.528;2024-02-26T10:34:58;0.00;;;0.00;;
4577;SDS011;2301;47.354;8.528;2024-02-26T10:37:26;0.10;;;0.10;;
4577;SDS011;2301;47.354;8.528;2024-02-26T10:39:53;0.00;;;0.00;;
4577;SDS011;2301;47.354;8.528;2024-02-26T10:42:20;0.10;;;0.10;;
4577;SDS011;2301;47.354;8.528;2024-02-26T10:44:47;0.10;;;0.10;;
4577;SDS011;2301;47.354;8.528;2024-02-26T10:47:14;0.00;;;0.00;;
4577;SDS011;2301;47.354;8.528;2024-02-26T10:49:44;0.03;;;0.03;;
4577;SDS011;2301;47.354;8.528;2024-02-26T10:52:12;0.00;;;0.00;;
4577;SDS011;2301;47.354;8.528;2024-02-26T10:54:42;0.10;;;0.10;;
4577;SDS011;2301;47.354;8.528;2024-02-26T10:57:13;0.10;;;0.10;;
4577;SDS011;2301;47.354;8.528;2024-02-26T10:59:41;0.10;;;0.10;;
4577;SDS011;2301;47.354;8.528;2024-02-26T11:02:10;0.10;;;0.10;;
4577;SDS011;2301;47.354;8.528;2024-02-26T11:04:38;0.10;;;0.10;;
4577;SDS011;2301;47.354;8.528;2024-02-26T11:07:05;0.00;;;0.00;;
4577;SDS011;2301;47.354;8.528;2024-02-26T11:09:35;0.10;;;0.10;;
4577;SDS011;2301;47.354;8.528;2024-02-26T11:12:08;0.10;;;0.10;;
4577;SDS011;2301;47.354;8.528;2024-02-26T11:14:38;0.10;;;0.10;;
4577;SDS011;2301;47.354;8.528;2024-02-26T11:17:07;0.10;;;0.10;;
4577;SDS011;2301;47.354;8.528;2024-02-26T11:19:35;0.10;;;0.10;;
4577;SDS011;2301;47.354;8.528;2024-02-26T11:22:04;0.00;;;0.00;;
4577;SDS011;2301;47.354;8.528;2024-02-26T11:24:31;0.00;;;0.00;;
4577;SDS011;2301;47.354;8.528;2024-02-26T11:27:00;0.00;;;0.00;;
4577;SDS011;2301;47.354;8.528;2024-02-26T11:29:32;0.10;;;0.10;;
4577;SDS011;2301;47.354;8.528;2024-02-26T11:32:06;0.00;;;0.00;;
4577;SDS011;2301;47.354;8.528;2024-02-26T11:34:33;0.03;;;0.03;;
4577;SDS011;2301;47.354;8.528;2024-02-26T11:37:08;0.00;;;0.00;;
4577;SDS011;2301;47.354;8.528;2024-02-26T11:39:36;0.00;;;0.00;;
4577;SDS011;2301;47.354;8.528;2024-02-26T11:42:05;0.00;;;0.00;;
4577;SDS011;2301;47.354;8.528;2024-02-26T11:44:34;0.10;;;0.10;;
4577;SDS011;2301;47.354;8.528;2024-02-26T11:47:09;0.00;;;0.00;;
4577;SDS011;2301;47.354;8.528;2024-02-26T11:49:37;0.10;;;0.10;;
4577;SDS011;2301;47.354;8.528;2024-02-26T11:52:05;0.10;;;0.10;;
4577;SDS011;2301;47.354;8.528;2024-02-26T11:54:40;0.10;;;0.10;;
4577;SDS011;2301;47.354;8.528;2024-02-26T11:57:20;0.10;;;0.10;;
4577;SDS011;2301;47.354;8.528;2024-02-26T11:59:49;0.10;;;0.10;;
4577;SDS011;2301;47.354;8.528;2024-02-26T12:05:06;0.10;;;0.10;;
4577;SDS011;2301;47.354;8.528;2024-02-26T12:07:36;0.00;;;0.00;;
4577;SDS011;2301;47.354;8.528;2024-02-26T12:10:16;0.00;;;0.00;;
4577;SDS011;2301;47.354;8.528;2024-02-26T12:12:52;0.00;;;0.00;;
4577;SDS011;2301;47.354;8.528;2024-02-26T12:15:23;0.00;;;0.00;;
4577;SDS011;2301;47.354;8.528;2024-02-26T12:17:51;0.10;;;0.10;;
4577;SDS011;2301;47.354;8.528;2024-02-26T12:20:19;0.00;;;0.00;;
4577;SDS011;2301;47.354;8.528;2024-02-26T12:22:46;0.00;;;0.00;;
4577;SDS011;2301;47.354;8.528;2024-02-26T12:25:14;0.10;;;0.10;;
4577;SDS011;2301;47.354;8.528;2024-02-26T12:27:42;0.00;;;0.00;;
4577;SDS011;2301;47.354;8.528;2024-02-26T12:30:10;0.00;;;0.00;;
4577;SDS011;2301;47.354;8.528;2024-02-26T12:32:39;0.10;;;0.10;;
4577;SDS011;2301;47.354;8.528;2024-02-26T12:35:06;0.10;;;0.10;;
4577;SDS011;2301;47.354;8.528;2024-02-26T12:37:33;0.00;;;0.00;;
4577;SDS011;2301;47.354;8.528;2024-02-26T12:40:03;0.00;;;0.00;;
4577;SDS011;2301;47.354;8.528;2024-02-26T12:42:30;0.10;;;0.10;;
4577;SDS011;2301;47.354;8.528;2024-02-26T12:45:04;0.00;;;0.00;;
4577;SDS011;2301;47.354;8.528;2024-02-26T12:47:35;0.10;;;0.10;;
4577;SDS011;2301;47.354;8.528;2024-02-26T12:50:04;0.00;;;0.00;;
4577;SDS011;2301;47.354;8.528;2024-02-26T12:52:33;0.00;;;0.00;;
4577;SDS011;2301;47.354;8.528;2024-02-26T12:55:01;0.00;;;0.00;;
4577;SDS011;2301;47.354;8.528;2024-02-26T12:57:29;0.00;;;0.00;;
4577;SDS011;2301;47.354;8.528;2024-02-26T12:59:57;0.10;;;0.10;;
4577;SDS011;2301;47.354;8.528;2024-02-26T13:02:25;0.10;;;0.10;;
4577;SDS011;2301;47.354;8.528;2024-02-26T13:04:53;0.10;;;0.10;;
4577;SDS011;2301;47.354;8.528;2024-02-26T13:07:21;0.00;;;0.00;;
4577;SDS011;2301;47.354;8.528;2024-02-26T13:09:49;0.10;;;0.10;;
4577;SDS011;2301;47.354;8.528;2024-02-26T13:12:16;0.00;;;0.00;;
4577;SDS011;2301;47.354;8.528;2024-02-26T13:14:43;0.10;;;0.10;;
4577;SDS011;2301;47.354;8.528;2024-02-26T13:17:10;0.00;;;0.00;;
4577;SDS011;2301;47.354;8.528;2024-02-26T13:19:37;0.00;;;0.00;;
4577;SDS011;2301;47.354;8.528;2024-02-26T13:22:04;0.00;;;0.00;;
4577;SDS011;2301;47.354;8.528;2024-02-26T13:24:34;0.10;;;0.10;;
4577;SDS011;2301;47.354;8.528;2024-02-26T13:27:01;0.00;;;0.00;;
4577;SDS011;2301;47.354;8.528;2024-02-26T13:29:32;0.00;;;0.00;;
4577;SDS011;2301;47.354;8.528;2024-02-26T13:32:01;0.00;;;0.00;;
4577;SDS011;2301;47.354;8.528;2024-02-26T13:34:31;0.00;;;0.00;;
4577;SDS011;2301;47.354;8.528;2024-02-26T13:36:59;0.10;;;0.10;;
4577;SDS011;2301;47.354;8.528;2024-02-26T13:39:26;0.00;;;0.00;;
4577;SDS011;2301;47.354;8.528;2024-02-26T13:41:56;0.10;;;0.10;;
4577;SDS011;2301;47.354;8.528;2024-02-26T13:44:23;0.00;;;0.00;;
4577;SDS011;2301;47.354;8.528;2024-02-26T13:46:50;0.10;;;0.10;;
4577;SDS011;2301;47.354;8.528;2024-02-26T13:49:17;0.00;;;0.00;;
4577;SDS011;2301;47.354;8.528;2024-02-26T13:51:44;0.00;;;0.00;;
4577;SDS011;2301;47.354;8.528;2024-02-26T13:54:11;0.00;;;0.00;;
4577;SDS011;2301;47.354;8.528;2024-02-26T13:56:41;0.10;;;0.10;;
4577;SDS011;2301;47.354;8.528;2024-02-26T13:59:12;0.00;;;0.00;;
4577;SDS011;2301;47.354;8.528;2024-02-26T14:01:39;0.00;;;0.00;;
4577;SDS011;2301;47.354;8.528;2024-02-26T14:04:06;0.10;;;0.10;;
4577;SDS011;2301;47.354;8.528;2024-02-26T14:06:34;0.10;;;0.10;;
4577;SDS011;2301;47.354;8.528;2024-02-26T14:09:01;0.00;;;0.00;;
4577;SDS011;2301;47.354;8.528;2024-02-26T14:11:29;0.10;;;0.10;;
4577;SDS011;2301;47.354;8.528;2024-02-26T14:13:56;0.10;;;0.10;;
4577;SDS011;2301;47.354;8.528;2024-02-26T14:16:24;0.00;;;0.00;;
4577;SDS011;2301;47.354;8.528;2024-02-26T14:18:51;0.00;;;0.00;;
4577;SDS011;2301;47.354;8.528;2024-02-26T14:21:18;0.10;;;0.10;;
4577;SDS011;2301;47.354;8.528;2024-02-26T14:23:45;0.00;;;0.00;;
4577;SDS011;2301;47.354;8.528;2024-02-26T14:26:12;0.00;;;0.00;;
4577;SDS011;2301;47.354;8.528;2024-02-26T14:28:39;0.00;;;0.00;;
4577;SDS011;2301;47.354;8.528;2024-02-26T14:31:06;0.00;;;0.00;;
4577;SDS011;2301;47.354;8.528;2024-02-26T14:33:38;0.10;;;0.10;;
4577;SDS011;2301;47.354;8.528;2024-02-26T14:36:06;0.00;;;0.00;;
4577;SDS011;2301;47.354;8.528;2024-02-26T14:38:33;0.00;;;0.00;;
4577;SDS011;2301;47.354;8.528;2024-02-26T14:41:00;0.10;;;0.10;;
4577;SDS011;2301;47.354;8.528;2024-02-26T14:43:27;0.00;;;0.00;;
4577;SDS011;2301;47.354;8.528;2024-02-26T14:45:54;0.00;;;0.00;;
4577;SDS011;2301;47.354;8.528;2024-02-26T14:48:21;0.10;;;0.10;;
4577;SDS011;2301;47.354;8.528;2024-02-26T14:50:50;0.00;;;0.00;;
4577;SDS011;2301;47.354;8.528;2024-02-26T14:53:17;0.10;;;0.10;;
4577;SDS011;2301;47.354;8.528;2024-02-26T14:55:44;0.00;;;0.00;;
4577;SDS011;2301;47.354;8.528;2024-02-26T14:58:11;0.10;;;0.10;;
4577;SDS011;2301;47.354;8.528;2024-02-26T15:00:38;0.10;;;0.10;;
4577;SDS011;2301;47.354;8.528;2024-02-26T15:03:05;0.00;;;0.00;;
4577;SDS011;2301;47.354;8.528;2024-02-26T15:05:33;0.10;;;0.10;;
4577;SDS011;2301;47.354;8.528;2024-02-26T15:08:02;0.10;;;0.10;;
4577;SDS011;2301;47.354;8.528;2024-02-26T15:10:29;0.00;;;0.00;;
4577;SDS011;2301;47.354;8.528;2024-02-26T15:12:56;0.00;;;0.00;;
4577;SDS011;2301;47.354;8.528;2024-02-26T15:15:23;0.03;;;0.03;;
4577;SDS011;2301;47.354;8.528;2024-02-26T15:17:50;0.00;;;0.00;;
4577;SDS011;2301;47.354;8.528;2024-02-26T15:20:17;0.00;;;0.00;;
4577;SDS011;2301;47.354;8.528;2024-02-26T15:22:45;0.00;;;0.00;;
4577;SDS011;2301;47.354;8.528;2024-02-26T15:25:13;0.00;;;0.00;;
4577;SDS011;2301;47.354;8.528;2024-02-26T15:27:41;0.00;;;0.00;;
4577;SDS011;2301;47.354;8.528;2024-02-26T15:30:09;0.00;;;0.00;;
4577;SDS011;2301;47.354;8.528;2024-02-26T15:32:36;0.00;;;0.00;;